Time;durP1;ratioP1;P1;durP2;ratioP2;P2;SDS_P1;SDS_P2;PMS_P1;PMS_P2;Temp;Humidity;BMP_temperature;BMP_pressure;BME280_temperature;BME280_humidity;BME280_pressure;Samples;Min_cycle;Max_cycle;Signal;HPM_P1;HPM_P2
2022/04/20 00:00:21;;;;;;;11.20;4.68;;;5.30;98.40;;;;;;4995177;28;20087;-86
2022/04/20 00:02:47;;;;;;;9.25;5.18;;;5.20;98.80;;;;;;4997729;28;20156;-86
2022/04/20 00:05:13;;;;;;;11.32;5.25;;;5.10;99.50;;;;;;4998581;28;20038;-86
2022/04/20 00:07:48;;;;;;;11.60;5.90;;;5.10;99.70;;;;;;4998663;28;20041;-87
2022/04/20 00:10:13;;;;;;;10.30;5.47;;;5.10;99.90;;;;;;4998670;28;20041;-86
2022/04/20 00:12:39;;;;;;;11.23;5.85;;;5.00;99.90;;;;;;4998485;28;20385;-86
2022/04/20 00:15:19;;;;;;;13.32;6.40;;;4.90;99.90;;;;;;4998492;28;20034;-87
2022/04/20 00:17:45;;;;;;;12.23;6.07;;;4.80;99.90;;;;;;4998655;28;20034;-86
2022/04/20 00:20:11;;;;;;;14.00;5.90;;;4.80;99.90;;;;;;4998074;28;20045;-85
2022/04/20 00:22:37;;;;;;;13.45;5.75;;;4.80;99.90;;;;;;4997928;28;20037;-86
2022/04/20 00:25:04;;;;;;;15.73;5.72;;;4.70;99.90;;;;;;4998166;28;20033;-86
2022/04/20 00:27:38;;;;;;;13.35;6.03;;;4.60;99.90;;;;;;4997907;28;20084;-86
2022/04/20 00:30:09;;;;;;;9.35;4.90;;;4.50;99.90;;;;;;4997640;28;20042;-86
2022/04/20 00:32:36;;;;;;;14.13;4.70;;;4.40;99.90;;;;;;4997851;28;20034;-86
2022/04/20 00:35:02;;;;;;;10.38;5.35;;;4.30;99.90;;;;;;5014445;28;20351;-85
2022/04/20 00:37:28;;;;;;;9.27;4.45;;;4.20;99.90;;;;;;4997989;28;20038;-86
2022/04/20 00:39:54;;;;;;;11.13;4.80;;;4.20;99.90;;;;;;5014345;28;20389;-86
2022/04/20 00:42:22;;;;;;;8.55;4.38;;;4.20;99.90;;;;;;5014195;28;20038;-86
2022/04/20 00:44:49;;;;;;;11.10;4.43;;;4.10;99.90;;;;;;4997698;28;20113;-86
2022/04/20 00:47:17;;;;;;;10.40;6.75;;;4.10;99.90;;;;;;4997769;28;20034;-86
2022/04/20 00:49:43;;;;;;;10.27;5.82;;;4.00;99.90;;;;;;4997997;28;20038;-86
2022/04/20 00:52:08;;;;;;;9.43;5.13;;;3.90;99.90;;;;;;4997861;28;20042;-86
2022/04/20 00:54:44;;;;;;;10.27;6.13;;;3.80;99.90;;;;;;4997785;28;20066;-86
2022/04/20 00:57:12;;;;;;;10.98;5.80;;;3.80;99.90;;;;;;4981724;28;20037;-86
2022/04/20 00:59:39;;;;;;;8.32;4.40;;;3.70;99.90;;;;;;5015409;28;20453;-86
2022/04/20 01:02:05;;;;;;;8.18;4.70;;;3.60;99.90;;;;;;5030148;28;20056;-87
2022/04/20 01:04:32;;;;;;;7.10;4.35;;;3.60;99.90;;;;;;4997734;28;20080;-86
2022/04/20 01:07:22;;;;;;;7.88;4.47;;;3.60;99.90;;;;;;4997600;28;20033;-86
2022/04/20 01:09:54;;;;;;;8.05;4.80;;;3.40;99.90;;;;;;5015345;28;20046;-86
2022/04/20 01:12:39;;;;;;;9.73;5.72;;;3.40;99.90;;;;;;5015302;28;20071;-87
2022/04/20 01:15:23;;;;;;;8.48;4.63;;;3.30;99.90;;;;;;5000242;28;20080;-86
2022/04/20 01:18:21;;;;;;;8.52;5.28;;;3.20;99.90;;;;;;4982257;28;20038;-86
2022/04/20 01:21:01;;;;;;;10.57;5.35;;;3.10;99.90;;;;;;4996865;28;20030;-86
2022/04/20 01:23:45;;;;;;;6.85;4.78;;;3.00;99.90;;;;;;4996653;28;20180;-86
2022/04/20 01:26:29;;;;;;;11.05;5.00;;;2.90;99.90;;;;;;4996758;28;20030;-86
2022/04/20 01:29:03;;;;;;;11.98;5.72;;;2.90;99.90;;;;;;4997181;28;20045;-86
2022/04/20 01:32:01;;;;;;;8.68;4.85;;;2.90;99.90;;;;;;4969601;28;20477;-86
2022/04/20 01:34:34;;;;;;;9.63;4.60;;;2.90;99.90;;;;;;5012835;28;20640;-86
2022/04/20 01:37:00;;;;;;;9.63;4.80;;;2.80;99.90;;;;;;5013259;28;20041;-86
2022/04/20 01:39:25;;;;;;;7.90;5.05;;;2.80;99.90;;;;;;5014650;28;20030;-86
2022/04/20 01:41:53;;;;;;;9.15;4.88;;;2.80;99.90;;;;;;4996885;28;20107;-86
2022/04/20 01:44:19;;;;;;;10.07;4.80;;;2.90;99.90;;;;;;5013203;28;20108;-86
2022/04/20 01:46:55;;;;;;;14.60;5.43;;;2.90;99.90;;;;;;4996615;28;20038;-86
2022/04/20 01:49:21;;;;;;;9.73;4.95;;;2.90;99.90;;;;;;4997141;28;20045;-86
2022/04/20 01:52:02;;;;;;;;;;;2.90;99.90;;;;;;4997431;28;20076;-86
2022/04/20 01:54:28;;;;;;;8.13;4.78;;;2.90;99.90;;;;;;5014891;28;19913;-86
2022/04/20 01:57:02;;;;;;;9.25;5.10;;;2.90;99.90;;;;;;4981471;28;20057;-86
2022/04/20 01:59:54;;;;;;;11.48;5.85;;;2.80;99.90;;;;;;5013828;28;20060;-86
2022/04/20 02:02:43;;;;;;;9.25;4.97;;;2.80;99.90;;;;;;4993757;28;20635;-87
2022/04/20 02:05:20;;;;;;;8.43;5.38;;;2.70;99.90;;;;;;5014122;28;20038;-86
2022/04/20 02:07:48;;;;;;;10.80;5.07;;;2.70;99.90;;;;;;5028940;28;20062;-86
2022/04/20 02:10:19;;;;;;;8.52;5.40;;;2.70;99.90;;;;;;4997305;28;20404;-86
2022/04/20 02:12:45;;;;;;;8.48;5.68;;;2.70;99.90;;;;;;5012771;28;20092;-86
2022/04/20 02:15:24;;;;;;;11.30;5.88;;;2.80;99.90;;;;;;4996313;28;20125;-86
2022/04/20 02:18:01;;;;;;;9.82;5.50;;;2.70;99.90;;;;;;5013859;28;20034;-86
2022/04/20 02:20:47;;;;;;;8.57;5.63;;;2.70;99.90;;;;;;5013672;28;20099;-86
2022/04/20 02:23:13;;;;;;;8.70;5.72;;;2.70;99.90;;;;;;4995990;28;20053;-86
2022/04/20 02:25:39;;;;;;;10.38;5.57;;;2.70;99.90;;;;;;4995234;28;20030;-86
2022/04/20 02:28:05;;;;;;;14.65;6.50;;;2.60;99.90;;;;;;4996169;28;20040;-87
2022/04/20 02:30:30;;;;;;;8.60;6.18;;;2.60;99.90;;;;;;4996286;28;20110;-86
2022/04/20 02:32:56;;;;;;;11.02;6.00;;;2.60;99.90;;;;;;4995643;28;20026;-86
2022/04/20 02:35:22;;;;;;;8.65;5.90;;;2.70;99.90;;;;;;4996183;28;20029;-86
2022/04/20 02:37:47;;;;;;;9.73;6.20;;;2.60;99.90;;;;;;5011799;28;20038;-86
2022/04/20 02:40:16;;;;;;;10.45;6.28;;;2.60;99.90;;;;;;4995838;28;20025;-86
2022/04/20 02:42:42;;;;;;;9.15;6.00;;;2.60;99.90;;;;;;4995984;28;20080;-86
2022/04/20 02:45:08;;;;;;;10.20;5.78;;;2.50;99.90;;;;;;4996013;28;20032;-86
2022/04/20 02:47:35;;;;;;;17.73;5.97;;;2.50;99.90;;;;;;4995875;28;20425;-86
2022/04/20 02:50:01;;;;;;;16.67;6.95;;;2.60;99.90;;;;;;4996042;28;20034;-86
2022/04/20 02:52:26;;;;;;;10.98;6.53;;;2.50;99.90;;;;;;4995616;28;20136;-86
2022/04/20 02:54:53;;;;;;;8.85;6.55;;;2.50;99.90;;;;;;4995819;28;20068;-86
2022/04/20 02:57:19;;;;;;;10.55;5.72;;;2.50;99.90;;;;;;4995745;28;20105;-86
2022/04/20 02:59:48;;;;;;;9.45;6.30;;;2.50;99.90;;;;;;4995986;28;20037;-86
2022/04/20 03:02:14;;;;;;;10.18;5.60;;;2.50;99.90;;;;;;5028323;28;20075;-85
2022/04/20 03:04:40;;;;;;;11.77;6.32;;;2.60;99.90;;;;;;4995866;28;20489;-86
2022/04/20 03:07:07;;;;;;;11.55;6.47;;;2.70;99.90;;;;;;4995930;28;20124;-86
2022/04/20 03:09:42;;;;;;;15.68;8.35;;;2.60;99.90;;;;;;4995733;28;20041;-87
2022/04/20 03:12:10;;;;;;;42.92;18.13;;;2.60;99.90;;;;;;5011325;28;20034;-86
2022/04/20 03:14:38;;;;;;;39.08;14.60;;;2.50;99.90;;;;;;4979837;28;20026;-86
2022/04/20 03:17:05;;;;;;;19.25;10.52;;;2.40;99.90;;;;;;4979383;28;20033;-86
2022/04/20 03:19:31;;;;;;;15.77;8.65;;;2.40;99.90;;;;;;4995173;28;20061;-86
2022/04/20 03:21:57;;;;;;;12.40;8.18;;;2.40;99.90;;;;;;4995380;28;20026;-86
2022/04/20 03:24:26;;;;;;;11.40;7.45;;;2.30;99.90;;;;;;4996198;28;20030;-87
2022/04/20 03:27:00;;;;;;;10.50;7.05;;;2.30;99.90;;;;;;4995655;28;20076;-87
2022/04/20 03:29:41;;;;;;;10.02;6.70;;;2.20;99.90;;;;;;4995082;28;20088;-86
2022/04/20 03:32:11;;;;;;;16.42;6.78;;;2.10;99.90;;;;;;4995047;28;20038;-86
2022/04/20 03:34:39;;;;;;;8.75;6.22;;;2.00;99.90;;;;;;5011617;28;20033;-86
2022/04/20 03:37:06;;;;;;;11.93;6.53;;;1.90;99.90;;;;;;5029333;28;20087;-86
2022/04/20 03:39:33;;;;;;;13.68;7.07;;;1.90;99.90;;;;;;4998984;28;20030;-86
2022/04/20 03:42:05;;;;;;;12.02;7.72;;;1.90;99.90;;;;;;4998530;28;20801;-86
2022/04/20 03:44:31;;;;;;;12.27;8.13;;;1.80;99.90;;;;;;4998605;28;20034;-86
2022/04/20 03:46:57;;;;;;;13.35;8.10;;;1.70;99.90;;;;;;4998183;28;20029;-86
2022/04/20 03:49:23;;;;;;;10.38;7.03;;;1.70;99.90;;;;;;4998776;28;20109;-86
2022/04/20 03:51:49;;;;;;;10.45;6.93;;;1.50;99.90;;;;;;4998373;28;20539;-86
2022/04/20 03:54:19;;;;;;;10.27;7.40;;;1.50;99.90;;;;;;4998505;28;20037;-86
2022/04/20 03:57:07;;;;;;;17.40;8.93;;;1.60;99.90;;;;;;4998303;28;20057;-86
2022/04/20 03:59:38;;;;;;;18.45;7.38;;;1.60;99.90;;;;;;4991493;28;20057;-87
2022/04/20 04:02:05;;;;;;;10.02;7.45;;;1.70;99.90;;;;;;4998518;28;20029;-86
2022/04/20 04:04:35;;;;;;;14.57;8.10;;;1.70;99.90;;;;;;5014861;28;20022;-86
2022/04/20 04:07:08;;;;;;;17.13;6.82;;;1.70;99.90;;;;;;4998857;28;20037;-86
2022/04/20 04:09:34;;;;;;;10.23;6.22;;;1.70;99.90;;;;;;4998626;28;20034;-86
2022/04/20 04:12:00;;;;;;;11.52;6.70;;;1.80;99.90;;;;;;5014804;28;20056;-86
2022/04/20 04:14:26;;;;;;;12.05;6.30;;;1.70;99.90;;;;;;4982556;28;20030;-86
2022/04/20 04:16:52;;;;;;;11.07;6.68;;;1.70;99.90;;;;;;4999207;28;20030;-86
2022/04/20 04:19:19;;;;;;;12.57;7.00;;;1.80;99.90;;;;;;4998263;28;20521;-86
2022/04/20 04:21:51;;;;;;;12.00;6.50;;;1.70;99.90;;;;;;4999686;28;20358;-87
2022/04/20 04:24:35;;;;;;;17.60;6.38;;;1.70;99.90;;;;;;4998475;28;20046;-86
2022/04/20 04:27:05;;;;;;;11.10;6.63;;;1.60;99.90;;;;;;4999179;28;20125;-90
2022/04/20 04:29:34;;;;;;;13.43;6.57;;;1.60;99.90;;;;;;5000224;28;20033;-89
2022/04/20 04:32:01;;;;;;;10.02;6.22;;;1.60;99.90;;;;;;5000301;28;20058;-90
2022/04/20 04:34:27;;;;;;;10.55;6.40;;;1.60;99.90;;;;;;4999473;28;20033;-89
2022/04/20 04:36:54;;;;;;;14.90;6.15;;;1.60;99.90;;;;;;4999413;28;20030;-89
2022/04/20 04:39:22;;;;;;;15.57;6.55;;;1.60;99.90;;;;;;4999520;28;20026;-90
2022/04/20 04:41:50;;;;;;;14.13;6.85;;;1.60;99.90;;;;;;4999142;28;20473;-89
2022/04/20 04:44:17;;;;;;;13.00;6.50;;;1.60;99.90;;;;;;4999391;28;20044;-89
2022/04/20 04:49:31;;;;;;;9.98;6.22;;;1.60;99.90;;;;;;5015547;28;20034;-90
2022/04/20 04:52:00;;;;;;;9.77;6.70;;;1.70;99.90;;;;;;4999115;28;20485;-90
2022/04/20 04:54:26;;;;;;;12.75;6.78;;;1.80;99.90;;;;;;4998919;28;20539;-89
2022/04/20 04:56:53;;;;;;;9.82;6.93;;;1.80;99.90;;;;;;4999307;28;20512;-90
2022/04/20 04:59:20;;;;;;;11.50;6.53;;;1.90;99.90;;;;;;4999388;28;20036;-89
2022/04/20 05:01:49;;;;;;;12.88;6.28;;;2.00;99.90;;;;;;4999028;28;20470;-90
2022/04/20 05:04:19;;;;;;;12.88;6.40;;;2.00;99.90;;;;;;5015594;28;20022;-91
2022/04/20 05:06:47;;;;;;;15.50;6.50;;;2.10;99.90;;;;;;5015182;28;20084;-89
2022/04/20 05:09:35;;;;;;;10.65;5.90;;;2.10;99.90;;;;;;5001860;28;20042;-90
2022/04/20 05:12:01;;;;;;;12.32;6.13;;;2.20;99.90;;;;;;4998741;28;20026;-90
2022/04/20 05:14:30;;;;;;;9.88;6.00;;;2.40;99.90;;;;;;4999335;28;20053;-90
2022/04/20 05:16:56;;;;;;;10.25;6.78;;;2.50;99.90;;;;;;4998653;28;20417;-90
2022/04/20 05:19:22;;;;;;;10.43;5.82;;;2.50;99.90;;;;;;4998660;28;20116;-90
2022/04/20 05:22:01;;;;;;;9.05;6.05;;;2.60;99.90;;;;;;5015169;28;20048;-89
2022/04/20 05:24:38;;;;;;;12.10;6.50;;;2.70;99.90;;;;;;4999123;28;20025;-90
2022/04/20 05:27:09;;;;;;;11.02;5.82;;;2.90;99.90;;;;;;4998192;28;20088;-91
2022/04/20 05:29:48;;;;;;;12.70;6.05;;;3.00;99.90;;;;;;5015589;28;20033;-90
2022/04/20 05:32:33;;;;;;;11.82;6.60;;;3.00;99.90;;;;;;4998923;28;20030;-90
2022/04/20 05:35:09;;;;;;;10.40;6.03;;;3.10;99.90;;;;;;5014790;28;20025;-90
2022/04/20 05:43:33;;;;;;;11.02;5.65;;;3.40;99.90;;;;;;5031352;28;20032;-89
2022/04/20 05:45:58;;;;;;;8.38;5.65;;;3.50;99.90;;;;;;4998350;28;20041;-90
2022/04/20 05:48:40;;;;;;;9.68;5.85;;;3.60;99.90;;;;;;4998440;28;20034;-90
2022/04/20 05:51:11;;;;;;;10.65;5.30;;;3.70;99.90;;;;;;4998643;28;20184;-90
2022/04/20 05:53:37;;;;;;;13.05;5.78;;;3.80;99.90;;;;;;5014624;28;20057;-90
2022/04/20 05:56:04;;;;;;;10.98;6.20;;;3.90;99.90;;;;;;4998477;28;20041;-90
2022/04/20 05:58:50;;;;;;;14.38;6.10;;;4.00;99.90;;;;;;4998561;28;20040;-89
2022/04/20 06:01:18;;;;;;;7.95;5.80;;;4.00;99.90;;;;;;5014428;28;20040;-89
2022/04/20 06:04:07;;;;;;;9.93;6.38;;;4.00;99.90;;;;;;4999022;28;20034;-90
2022/04/20 06:06:39;;;;;;;8.63;5.35;;;4.30;99.90;;;;;;5015761;28;20022;-90
2022/04/20 06:09:15;;;;;;;12.13;6.20;;;4.30;99.90;;;;;;4998559;28;20037;-91
2022/04/20 06:12:15;;;;;;;8.13;6.22;;;4.40;99.90;;;;;;4995340;28;20113;-90
2022/04/20 06:15:06;;;;;;;12.50;6.35;;;4.50;99.90;;;;;;4998082;28;20034;-90
2022/04/20 06:17:39;;;;;;;9.57;5.80;;;4.60;99.90;;;;;;5014127;28;20030;-90
2022/04/20 06:20:08;;;;;;;10.05;6.30;;;4.70;99.90;;;;;;4997870;28;20040;-90
2022/04/20 06:22:48;;;;;;;13.70;6.38;;;4.80;99.90;;;;;;4997757;28;20030;-90
2022/04/20 06:29:20;;;;;;;12.98;6.00;;;5.00;99.90;;;;;;5015266;28;20037;-90
2022/04/20 06:31:53;;;;;;;9.02;5.80;;;5.10;99.90;;;;;;4982384;28;20444;-91
2022/04/20 06:34:57;;;;;;;12.40;5.88;;;5.10;99.90;;;;;;5009488;28;20042;-91
2022/04/20 06:37:44;;;;;;;10.23;5.65;;;5.30;99.90;;;;;;4997492;28;20038;-91
2022/04/20 06:40:30;;;;;;;12.55;5.82;;;5.30;99.90;;;;;;5000541;28;20042;-91
2022/04/20 06:43:35;;;;;;;14.52;7.03;;;5.40;99.90;;;;;;4999676;28;20541;-91
2022/04/20 06:46:24;;;;;;;11.45;6.63;;;5.50;99.90;;;;;;5000400;28;20037;-90
2022/04/20 06:49:19;;;;;;;8.82;6.13;;;5.60;99.90;;;;;;4997535;28;20756;-91
2022/04/20 07:00:16;;;;;;;8.93;6.00;;;6.00;99.90;;;;;;5012984;28;20555;-89
2022/04/20 07:03:02;;;;;;;7.97;6.05;;;6.00;99.90;;;;;;5020622;28;20045;-91
2022/04/20 07:05:46;;;;;;;10.65;5.85;;;6.10;99.90;;;;;;4997426;28;20040;-91
2022/04/20 07:08:31;;;;;;;9.02;5.13;;;6.20;99.90;;;;;;5002970;28;20044;-92
2022/04/20 07:11:09;;;;;;;9.48;5.30;;;6.20;99.90;;;;;;4997528;28;20389;-91
2022/04/20 07:13:43;;;;;;;14.77;5.30;;;6.30;99.90;;;;;;4996838;28;20030;-91
2022/04/20 07:16:08;;;;;;;8.45;5.45;;;6.30;99.90;;;;;;4996894;28;20117;-90
2022/04/20 07:18:38;;;;;;;15.90;5.93;;;6.40;99.90;;;;;;4996650;28;20065;-91
2022/04/20 07:21:20;;;;;;;10.02;6.45;;;6.50;99.90;;;;;;4996695;28;20036;-92
2022/04/20 07:24:20;;;;;;;12.27;5.85;;;6.60;99.90;;;;;;4983596;28;20401;-90
2022/04/20 07:26:56;;;;;;;14.32;5.35;;;6.70;99.90;;;;;;4998396;28;20030;-91
2022/04/20 07:29:38;;;;;;;12.73;5.55;;;6.80;99.90;;;;;;5014344;28;20061;-89
2022/04/20 07:32:11;;;;;;;13.10;5.70;;;6.80;99.90;;;;;;4997446;28;20033;-90
2022/04/20 07:34:55;;;;;;;10.55;5.47;;;6.90;99.90;;;;;;5017463;28;20089;-92
2022/04/20 07:37:40;;;;;;;8.93;6.15;;;6.90;99.90;;;;;;4979163;28;20026;-90
2022/04/20 07:40:25;;;;;;;8.98;5.45;;;6.90;99.90;;;;;;5014418;28;20044;-92
2022/04/20 07:43:14;;;;;;;9.02;4.93;;;6.90;99.90;;;;;;4998484;28;20529;-91
2022/04/20 07:46:00;;;;;;;8.77;5.35;;;7.00;99.90;;;;;;4998853;28;20030;-92
2022/04/20 07:48:32;;;;;;;12.15;4.85;;;7.10;99.90;;;;;;4998184;28;20060;-91
2022/04/20 07:51:23;;;;;;;8.45;5.55;;;7.30;99.90;;;;;;5012695;28;20058;-91
2022/04/20 07:54:09;;;;;;;11.40;5.28;;;7.40;99.90;;;;;;4999340;28;20037;-91
2022/04/20 07:56:34;;;;;;;10.38;6.35;;;7.40;99.90;;;;;;4997682;28;20037;-91
2022/04/20 07:59:20;;;;;;;9.32;5.80;;;7.50;99.90;;;;;;5012453;28;20478;-91
2022/04/20 08:02:04;;;;;;;19.55;7.57;;;7.70;99.90;;;;;;5012982;28;20422;-91
2022/04/20 08:05:06;;;;;;;18.83;7.13;;;7.70;99.90;;;;;;5000540;28;20034;-92
2022/04/20 08:07:32;;;;;;;11.50;6.60;;;7.80;99.90;;;;;;4996155;28;20033;-90
2022/04/20 08:09:58;;;;;;;9.70;5.10;;;7.90;99.90;;;;;;4996025;28;20033;-91
2022/04/20 08:12:30;;;;;;;10.95;5.82;;;7.90;99.90;;;;;;4995967;28;20124;-92
2022/04/20 08:14:57;;;;;;;11.85;5.55;;;8.10;99.90;;;;;;5012289;28;20025;-92
2022/04/20 08:17:28;;;;;;;11.53;4.60;;;8.20;99.90;;;;;;5011909;28;20065;-91
2022/04/20 08:20:32;;;;;;;6.97;4.80;;;8.30;99.90;;;;;;5000943;28;20029;-91
2022/04/20 08:23:24;;;;;;;5.65;4.05;;;8.40;99.90;;;;;;5011878;28;20030;-91
2022/04/20 08:25:50;;;;;;;5.40;3.85;;;8.50;99.90;;;;;;4999341;28;20076;-91
2022/04/20 08:28:16;;;;;;;7.05;4.97;;;8.40;99.90;;;;;;4999653;28;20030;-90
2022/04/20 08:30:44;;;;;;;4.93;3.83;;;8.40;99.90;;;;;;4984131;28;20030;-91
2022/04/20 08:33:10;;;;;;;8.13;4.25;;;8.40;99.50;;;;;;4999557;28;20385;-92
2022/04/20 08:35:37;;;;;;;5.47;4.43;;;8.40;99.90;;;;;;5000199;28;20057;-91
2022/04/20 08:38:04;;;;;;;9.13;4.80;;;8.30;99.70;;;;;;5015858;28;20390;-91
2022/04/20 08:40:30;;;;;;;8.15;4.93;;;8.40;99.70;;;;;;4991705;28;20037;-89
2022/04/20 08:43:01;;;;;;;6.45;4.32;;;8.50;98.80;;;;;;4999411;28;20477;-91
2022/04/20 08:45:28;;;;;;;7.43;4.93;;;8.50;99.00;;;;;;5000090;28;20029;-91
2022/04/20 08:47:56;;;;;;;6.65;4.68;;;8.70;98.30;;;;;;4999767;28;20026;-90
2022/04/20 08:50:24;;;;;;;7.75;4.53;;;8.80;99.70;;;;;;4999499;28;20029;-90
2022/04/20 08:52:51;;;;;;;7.25;4.15;;;8.80;99.30;;;;;;5015479;28;20046;-90
2022/04/20 08:55:18;;;;;;;6.78;4.22;;;8.80;98.40;;;;;;5000228;28;20161;-91
2022/04/20 08:57:50;;;;;;;6.68;4.57;;;8.90;97.40;;;;;;4999978;28;20042;-91
2022/04/20 09:00:21;;;;;;;11.60;6.35;;;8.90;97.40;;;;;;5015393;28;20037;-90
2022/04/20 09:02:56;;;;;;;8.30;4.63;;;9.80;96.90;;;;;;4999171;28;20076;-91
2022/04/20 09:05:28;;;;;;;7.15;5.32;;;11.40;90.80;;;;;;5015478;28;20029;-92
2022/04/20 09:07:54;;;;;;;7.88;4.13;;;12.70;87.90;;;;;;4998911;28;20029;-91
2022/04/20 09:10:21;;;;;;;5.57;4.03;;;13.50;83.10;;;;;;4999164;28;20029;-90
2022/04/20 09:13:00;;;;;;;5.03;4.00;;;14.50;75.10;;;;;;5015378;28;20040;-90
2022/04/20 09:18:55;;;;;;;12.13;4.78;;;16.20;63.10;;;;;;5032354;28;20040;-91
2022/04/20 09:21:21;;;;;;;5.05;3.40;;;16.10;59.90;;;;;;4999706;28;20029;-91
2022/04/20 09:23:47;;;;;;;5.38;3.95;;;15.90;59.80;;;;;;4982489;28;20122;-90
2022/04/20 09:26:17;;;;;;;6.70;3.92;;;16.30;61.00;;;;;;4998676;28;20113;-91
2022/04/20 09:29:04;;;;;;;5.18;3.63;;;16.20;58.40;;;;;;4999050;28;20441;-91
2022/04/20 09:31:43;;;;;;;10.10;4.43;;;16.00;58.10;;;;;;4990953;28;20034;-91
2022/04/20 09:34:09;;;;;;;8.88;4.63;;;15.80;58.10;;;;;;4998392;28;20093;-91
2022/04/20 09:36:45;;;;;;;6.75;4.10;;;15.30;59.90;;;;;;5030948;28;20394;-90
2022/04/20 09:39:13;;;;;;;9.07;3.92;;;15.50;59.80;;;;;;4998131;28;20042;-91
2022/04/20 09:41:58;;;;;;;6.05;4.55;;;15.60;60.80;;;;;;4998728;28;20500;-90
2022/04/20 09:44:26;;;;;;;5.88;4.50;;;15.00;61.70;;;;;;4998599;28;20489;-90
2022/04/20 09:49:58;;;;;;;7.63;5.03;;;13.90;64.30;;;;;;5007703;28;20025;-91
2022/04/20 09:52:24;;;;;;;7.55;4.97;;;13.40;65.90;;;;;;5015864;28;20398;-92
2022/04/20 09:54:56;;;;;;;10.07;5.18;;;13.10;64.10;;;;;;4999087;28;20036;-89
2022/04/20 09:57:22;;;;;;;7.75;4.78;;;12.90;66.90;;;;;;4998717;28;20029;-91
2022/04/20 10:00:04;;;;;;;8.43;4.95;;;12.90;66.80;;;;;;5013996;28;20052;-89
2022/04/20 10:02:53;;;;;;;7.72;4.97;;;13.20;68.90;;;;;;4999154;28;20038;-91
2022/04/20 10:05:22;;;;;;;7.22;4.85;;;13.60;68.00;;;;;;4997960;28;20080;-89
2022/04/20 10:07:48;;;;;;;7.28;5.10;;;13.90;65.70;;;;;;5014405;28;20041;-91
2022/04/20 10:10:14;;;;;;;7.65;5.57;;;13.90;64.70;;;;;;5015170;28;20397;-90
2022/04/20 10:12:42;;;;;;;10.07;5.53;;;14.20;66.40;;;;;;4997748;28;20508;-90
2022/04/20 10:17:56;;;;;;;9.52;5.65;;;14.20;66.90;;;;;;5014268;28;20042;-91
2022/04/20 10:20:26;;;;;;;6.82;5.50;;;13.90;66.20;;;;;;4997598;28;20033;-91
2022/04/20 10:22:54;;;;;;;9.30;5.72;;;14.30;67.50;;;;;;4982312;28;20064;-90
2022/04/20 10:25:20;;;;;;;14.25;5.15;;;14.80;65.00;;;;;;4998050;28;20026;-89
2022/04/20 10:27:59;;;;;;;8.18;5.72;;;15.20;65.10;;;;;;4997569;28;20033;-89
2022/04/20 10:30:52;;;;;;;6.35;4.45;;;15.40;64.30;;;;;;5013725;28;20045;-90
2022/04/20 10:33:19;;;;;;;6.38;4.65;;;16.10;62.50;;;;;;4996889;28;20056;-89
2022/04/20 10:36:02;;;;;;;7.85;5.15;;;17.20;62.90;;;;;;5029762;28;20056;-91
2022/04/20 10:38:32;;;;;;;5.82;4.90;;;16.90;58.30;;;;;;4997094;28;20034;-90
2022/04/20 10:41:18;;;;;;;7.93;5.07;;;16.20;58.60;;;;;;4997911;28;20034;-90
2022/04/20 10:43:45;;;;;;;7.72;4.68;;;15.50;58.80;;;;;;4996921;28;20077;-91
2022/04/20 10:46:20;;;;;;;8.88;5.30;;;15.50;58.20;;;;;;4996589;28;20037;-90
2022/04/20 10:48:58;;;;;;;7.28;5.47;;;15.70;59.10;;;;;;4997329;28;20037;-91
2022/04/20 10:51:24;;;;;;;7.47;5.50;;;15.60;59.00;;;;;;4996918;28;20034;-90
2022/04/20 10:54:29;;;;;;;6.57;5.18;;;15.40;59.00;;;;;;5012828;28;20036;-91
2022/04/20 10:57:03;;;;;;;8.15;4.80;;;14.90;61.10;;;;;;5013282;28;20044;-91
2022/04/20 10:59:29;;;;;;;7.50;5.72;;;15.20;64.00;;;;;;4997513;28;20033;-90
2022/04/20 11:02:03;;;;;;;7.35;5.95;;;15.50;60.30;;;;;;5014690;28;20478;-90
2022/04/20 11:08:16;;;;;;;6.95;5.10;;;15.90;59.10;;;;;;5014752;28;20032;-90
2022/04/20 11:18:38;;;;;;;6.25;5.13;;;15.80;60.60;;;;;;4996589;28;20627;-90
2022/04/20 11:19:13;;;;;;;5.28;4.78;;;15.90;57.00;;;;;;5029320;28;20033;-90
2022/04/20 11:21:54;;;;;;;7.32;5.68;;;15.40;59.10;;;;;;4997040;28;20077;-91
2022/04/20 11:24:27;;;;;;;8.20;4.93;;;15.30;58.40;;;;;;4996613;28;20084;-90
2022/04/20 11:26:54;;;;;;;5.38;4.88;;;15.50;58.00;;;;;;4996984;28;20045;-90
2022/04/20 11:29:24;;;;;;;7.32;5.55;;;15.70;58.40;;;;;;5029183;28;20033;-90
2022/04/20 11:31:51;;;;;;;7.77;5.93;;;16.10;57.80;;;;;;4996645;28;20485;-91
2022/04/20 11:35:16;;;;;;;7.35;5.10;;;16.50;56.90;;;;;;5029219;28;20045;-90
2022/04/20 11:37:56;;;;;;;8.98;5.68;;;16.80;58.60;;;;;;4956113;28;20039;-92
2022/04/20 11:40:22;;;;;;;7.22;5.20;;;16.00;59.10;;;;;;4955915;28;20392;-91
2022/04/20 11:43:32;;;;;;;6.95;5.13;;;16.70;58.80;;;;;;4956955;28;20468;-90
2022/04/20 11:45:58;;;;;;;7.05;4.63;;;17.50;56.50;;;;;;5012924;28;20026;-90
2022/04/20 11:48:24;;;;;;;7.38;5.07;;;15.90;59.30;;;;;;4996628;28;20481;-90
2022/04/20 11:50:58;;;;;;;6.63;5.35;;;15.80;58.50;;;;;;4996068;28;20493;-90
2022/04/20 11:53:42;;;;;;;7.78;5.22;;;16.10;58.80;;;;;;5012583;28;20033;-89
2022/04/20 11:56:34;;;;;;;9.25;4.53;;;16.00;58.10;;;;;;4996020;28;20038;-90
2022/04/20 11:59:00;;;;;;;5.50;4.47;;;16.60;56.40;;;;;;5016948;28;20041;-91
2022/04/20 12:01:29;;;;;;;6.70;4.80;;;16.70;53.30;;;;;;4999961;28;20495;-89
2022/04/20 12:03:55;;;;;;;7.43;4.32;;;16.50;54.60;;;;;;5017076;28;20026;-90
2022/04/20 12:06:24;;;;;;;5.57;4.43;;;16.00;54.10;;;;;;4999539;28;20141;-90
2022/04/20 12:08:53;;;;;;;7.28;4.80;;;15.80;54.90;;;;;;4999205;28;20026;-91
2022/04/20 12:11:19;;;;;;;8.68;5.10;;;15.60;53.30;;;;;;4999159;28;20477;-89
2022/04/20 12:13:45;;;;;;;8.63;4.80;;;16.00;54.80;;;;;;4999013;28;20037;-89
2022/04/20 12:16:12;;;;;;;6.57;5.00;;;16.00;56.40;;;;;;5019215;28;20041;-89
2022/04/20 12:18:44;;;;;;;9.60;5.43;;;15.80;56.70;;;;;;5001748;28;20497;-90
2022/04/20 12:21:36;;;;;;;7.25;4.82;;;15.50;57.70;;;;;;5000190;28;20061;-91
2022/04/20 12:24:03;;;;;;;10.77;4.55;;;15.10;57.00;;;;;;5000737;28;20030;-90
2022/04/20 12:26:30;;;;;;;7.50;4.93;;;15.40;58.60;;;;;;5001373;28;20053;-92
2022/04/20 12:29:02;;;;;;;5.93;4.47;;;15.30;57.10;;;;;;5001165;28;20033;-92
2022/04/20 12:31:30;;;;;;;5.70;4.00;;;15.20;53.90;;;;;;5017505;28;20822;-89
2022/04/20 12:34:04;;;;;;;8.02;4.60;;;15.00;55.00;;;;;;5001088;28;20032;-90
2022/04/20 12:36:31;;;;;;;6.45;4.72;;;15.10;56.30;;;;;;4985399;28;20547;-90
2022/04/20 12:38:59;;;;;;;12.80;5.40;;;15.00;57.30;;;;;;5001910;28;20532;-91
2022/04/20 12:41:43;;;;;;;5.68;4.68;;;15.10;56.20;;;;;;5001832;28;20030;-91
2022/04/20 12:44:37;;;;;;;6.20;5.22;;;14.90;56.80;;;;;;5002371;28;20038;-90
2022/04/20 12:47:11;;;;;;;7.72;4.97;;;14.80;58.50;;;;;;5001627;28;20164;-91
2022/04/20 12:50:14;;;;;;;9.55;5.45;;;14.70;58.10;;;;;;5016601;28;20092;-91
2022/04/20 12:52:49;;;;;;;8.23;5.95;;;15.00;58.40;;;;;;4955500;28;20053;-91
2022/04/20 12:55:15;;;;;;;13.13;5.07;;;15.40;56.00;;;;;;5012474;28;20037;-91
2022/04/20 13:03:36;;;;;;;8.13;4.55;;;16.00;54.00;;;;;;5012058;28;20027;-90
2022/04/20 13:06:06;;;;;;;5.20;4.20;;;16.30;55.60;;;;;;4980972;28;20453;-90
2022/04/20 13:08:32;;;;;;;7.75;3.72;;;17.10;52.50;;;;;;5012497;28;20433;-91
2022/04/20 13:10:58;;;;;;;8.40;5.22;;;17.90;54.30;;;;;;4979183;28;20117;-91
2022/04/20 13:13:27;;;;;;;20.38;5.13;;;17.50;51.60;;;;;;5011737;28;20566;-90
2022/04/20 13:15:59;;;;;;;6.95;4.50;;;17.30;52.40;;;;;;5012046;28;20034;-91
2022/04/20 13:18:24;;;;;;;8.88;4.60;;;17.60;51.70;;;;;;4996580;28;20505;-90
2022/04/20 13:20:51;;;;;;;5.05;4.18;;;17.00;51.50;;;;;;4978256;28;20027;-91
2022/04/20 13:23:17;;;;;;;5.35;4.28;;;17.10;51.00;;;;;;4996470;28;20113;-91
2022/04/20 13:28:28;;;;;;;6.93;4.80;;;16.30;53.10;;;;;;4996773;28;20050;-90
2022/04/20 13:30:55;;;;;;;5.38;4.10;;;16.60;51.20;;;;;;5011789;28;20034;-91
2022/04/20 13:33:21;;;;;;;7.57;4.93;;;16.90;52.40;;;;;;4979171;28;20037;-93
2022/04/20 13:35:51;;;;;;;5.88;4.22;;;16.40;51.40;;;;;;4979595;28;20410;-90
2022/04/20 13:38:17;;;;;;;8.73;5.10;;;16.10;53.10;;;;;;4995050;28;20858;-91
2022/04/20 13:40:43;;;;;;;10.25;5.38;;;15.80;52.50;;;;;;4995790;28;20141;-90
2022/04/20 13:43:10;;;;;;;6.80;4.50;;;15.20;51.70;;;;;;4994711;28;20030;-90
2022/04/20 13:45:36;;;;;;;14.80;5.03;;;15.00;53.70;;;;;;5011538;28;20026;-89
2022/04/20 13:48:02;;;;;;;6.40;4.90;;;14.90;51.90;;;;;;5011362;28;20073;-90
2022/04/20 13:50:28;;;;;;;7.65;5.18;;;14.90;54.00;;;;;;4997564;28;20081;-90
2022/04/20 13:52:54;;;;;;;8.35;4.68;;;14.70;54.00;;;;;;4996972;28;20508;-90
2022/04/20 13:55:21;;;;;;;8.13;4.93;;;14.40;53.10;;;;;;4998262;28;20034;-90
2022/04/20 13:57:47;;;;;;;8.85;5.82;;;14.40;55.30;;;;;;4998353;28;20062;-90
2022/04/20 14:00:13;;;;;;;8.30;5.88;;;14.50;57.20;;;;;;4997781;28;20493;-90
2022/04/20 14:06:26;;;;;;;10.13;5.72;;;14.30;56.90;;;;;;5015727;28;20438;-90
2022/04/20 14:08:52;;;;;;;7.75;6.00;;;14.20;55.00;;;;;;4998084;28;20034;-91